Superfast Baleares — EBXD — position and weather

sailwx.info

Track history (hours):
 
Tides and Currents Weather Stations Pressure Air Temp Water Temp Dewpoint Dewpoint Depression Visibility Wind Speed Wind Dir Waves Ship Positions

Superfast Baleares

Last reported at 2015-Jul-30 10:22 UTC. Time now 2015-Jul-30 18:11 UTC.
Position N 39°27' W 000°19'.

Length 210 m; draft 6 m.

Type: Ship (hazmat cat A). MMSI: 225405000.

Date/timePositionNaut miles runAvg speedWind from/ knotsBaromVisibWave heightAir tempDewpointWater temp
2015-Jul-30 10:22N 39°27' W 000°19'125 4.2
2015-Jul-29 04:33N 39°26' E 002°22'2018.5
2015-Jul-29 03:29N 39°26' E 001°57'1818.6
2015-Jul-29 02:31N 39°25' E 001°34'8612.3
2015-Jul-28 19:31N 39°26' W 000°18'  
2015-Jul-25 06:20N 39°27' W 000°19'8111.7
2015-Jul-24 23:23N 39°26' E 001°26'1012.3
2015-Jul-24 22:33N 39°26' E 001°39'1211.8
2015-Jul-24 21:31N 39°26' E 001°55'1111.9
2015-Jul-24 20:34N 39°26' E 002°10'1212.1
2015-Jul-24 19:33N 39°25' E 002°25'1110.9
2015-Jul-24 18:34N 39°31' E 002°37'3 2.4
2015-Jul-24 17:30N 39°34' E 002°38'0 0.0
2015-Jul-24 16:33N 39°34' E 002°38'0 0.0
2015-Jul-24 15:33N 39°34' E 002°38'0 0.0
2015-Jul-24 14:33N 39°34' E 002°38'0 0.0
2015-Jul-24 13:33N 39°34' E 002°38'0 0.0
2015-Jul-24 12:33N 39°34' E 002°38'0 0.0
2015-Jul-24 11:33N 39°34' E 002°38'0 0.0
2015-Jul-24 10:33N 39°34' E 002°38'0 0.0
2015-Jul-24 09:33N 39°34' E 002°38'0 0.0
2015-Jul-24 08:33N 39°34' E 002°38'0 0.0
2015-Jul-24 07:33N 39°34' E 002°38'0 0.0
2015-Jul-24 06:33N 39°34' E 002°38'0 0.3
2015-Jul-24 05:33N 39°33' E 002°38'1312.8
2015-Jul-24 04:33N 39°26' E 002°25'1918.8
2015-Jul-24 03:33N 39°26' E 002°01'1918.8
2015-Jul-24 02:33N 39°25' E 001°37'1515.1
2015-Jul-24 01:33N 39°25' E 001°17'1411.2
2015-Jul-24 00:16N 39°25' E 000°58'811.3
2015-Jul-23 23:33N 39°25' E 000°48'4811.0
2015-Jul-23 19:09N 39°26' W 000°15'4 0.3
2015-Jul-23 06:26N 39°27' W 000°19'7811.1
2015-Jul-22 23:24N 39°26' E 001°22'1112.9
2015-Jul-22 22:33N 39°25' E 001°36'1212.3
2015-Jul-22 21:33N 39°25' E 001°52'1212.0
2015-Jul-22 20:33N 39°25' E 002°08'1212.0
2015-Jul-22 19:33N 39°25' E 002°23'1110.7
2015-Jul-22 18:33N 39°30' E 002°36'4 3.8
2015-Jul-22 17:31N 39°34' E 002°38'0 0.0
2015-Jul-22 16:28N 39°34' E 002°38'0 0.0
2015-Jul-22 15:31N 39°34' E 002°38'0 0.0
2015-Jul-22 14:33N 39°34' E 002°38'0 0.0
2015-Jul-22 13:33N 39°34' E 002°38'0 0.0
2015-Jul-22 12:33N 39°34' E 002°38'0 0.0
2015-Jul-22 11:33N 39°34' E 002°38'0 0.0
2015-Jul-22 10:33N 39°34' E 002°38'0 0.0
2015-Jul-22 09:33N 39°34' E 002°38'0 0.0
2015-Jul-22 08:33N 39°34' E 002°38'0 0.0
2015-Jul-22 07:33N 39°34' E 002°38'0 0.0
2015-Jul-22 06:33N 39°34' E 002°38'0 0.3
2015-Jul-22 05:33N 39°33' E 002°38'1414.1
2015-Jul-22 04:33N 39°25' E 002°24'1817.3
2015-Jul-22 03:31N 39°25' E 002°00'1717.3
2015-Jul-22 02:33N 39°25' E 001°39'1814.3
2015-Jul-22 01:17N 39°25' E 001°15'7310.8
2015-Jul-21 18:34N 39°27' W 000°19'  
Track history (hours):
 
Tides and Currents Weather Stations Pressure Air Temp Water Temp Dewpoint Dewpoint Depression Visibility Wind Speed Wind Dir Waves Ship Positions

Superfast Baleares

Last reported at 2015-Jul-30 10:22 UTC. Time now 2015-Jul-30 18:11 UTC.
Position N 39°27' W 000°19'.

Length 210 m; draft 6 m.

Type: Ship (hazmat cat A). MMSI: 225405000.

Date/timePositionNaut miles runAvg speedWind from/ knotsBaromVisibWave heightAir tempDewpointWater temp
2015-Jul-30 10:22N 39°27' W 000°19'125 4.2
2015-Jul-29 04:33N 39°26' E 002°22'2018.5
2015-Jul-29 03:29N 39°26' E 001°57'1818.6
2015-Jul-29 02:31N 39°25' E 001°34'8612.3
2015-Jul-28 19:31N 39°26' W 000°18'  
2015-Jul-25 06:20N 39°27' W 000°19'8111.7
2015-Jul-24 23:23N 39°26' E 001°26'1012.3
2015-Jul-24 22:33N 39°26' E 001°39'1211.8
2015-Jul-24 21:31N 39°26' E 001°55'1111.9
2015-Jul-24 20:34N 39°26' E 002°10'1212.1
2015-Jul-24 19:33N 39°25' E 002°25'1110.9
2015-Jul-24 18:34N 39°31' E 002°37'3 2.4
2015-Jul-24 17:30N 39°34' E 002°38'0 0.0
2015-Jul-24 16:33N 39°34' E 002°38'0 0.0
2015-Jul-24 15:33N 39°34' E 002°38'0 0.0
2015-Jul-24 14:33N 39°34' E 002°38'0 0.0
2015-Jul-24 13:33N 39°34' E 002°38'0 0.0
2015-Jul-24 12:33N 39°34' E 002°38'0 0.0
2015-Jul-24 11:33N 39°34' E 002°38'0 0.0
2015-Jul-24 10:33N 39°34' E 002°38'0 0.0
2015-Jul-24 09:33N 39°34' E 002°38'0 0.0
2015-Jul-24 08:33N 39°34' E 002°38'0 0.0
2015-Jul-24 07:33N 39°34' E 002°38'0 0.0
2015-Jul-24 06:33N 39°34' E 002°38'0 0.3
2015-Jul-24 05:33N 39°33' E 002°38'1312.8
2015-Jul-24 04:33N 39°26' E 002°25'1918.8
2015-Jul-24 03:33N 39°26' E 002°01'1918.8
2015-Jul-24 02:33N 39°25' E 001°37'1515.1
2015-Jul-24 01:33N 39°25' E 001°17'1411.2
2015-Jul-24 00:16N 39°25' E 000°58'811.3
2015-Jul-23 23:33N 39°25' E 000°48'4811.0
2015-Jul-23 19:09N 39°26' W 000°15'4 0.3
2015-Jul-23 06:26N 39°27' W 000°19'7811.1
2015-Jul-22 23:24N 39°26' E 001°22'1112.9
2015-Jul-22 22:33N 39°25' E 001°36'1212.3
2015-Jul-22 21:33N 39°25' E 001°52'1212.0
2015-Jul-22 20:33N 39°25' E 002°08'1212.0
2015-Jul-22 19:33N 39°25' E 002°23'1110.7
2015-Jul-22 18:33N 39°30' E 002°36'4 3.8
2015-Jul-22 17:31N 39°34' E 002°38'0 0.0
2015-Jul-22 16:28N 39°34' E 002°38'0 0.0
2015-Jul-22 15:31N 39°34' E 002°38'0 0.0
2015-Jul-22 14:33N 39°34' E 002°38'0 0.0
2015-Jul-22 13:33N 39°34' E 002°38'0 0.0
2015-Jul-22 12:33N 39°34' E 002°38'0 0.0
2015-Jul-22 11:33N 39°34' E 002°38'0 0.0
2015-Jul-22 10:33N 39°34' E 002°38'0 0.0
2015-Jul-22 09:33N 39°34' E 002°38'0 0.0
2015-Jul-22 08:33N 39°34' E 002°38'0 0.0
2015-Jul-22 07:33N 39°34' E 002°38'0 0.0
2015-Jul-22 06:33N 39°34' E 002°38'0 0.3
2015-Jul-22 05:33N 39°33' E 002°38'1414.1
2015-Jul-22 04:33N 39°25' E 002°24'1817.3
2015-Jul-22 03:31N 39°25' E 002°00'1717.3
2015-Jul-22 02:33N 39°25' E 001°39'1814.3
2015-Jul-22 01:17N 39°25' E 001°15'7310.8
2015-Jul-21 18:34N 39°27' W 000°19'  

Dump ship's entire track history